Time;durP1;ratioP1;P1;durP2;ratioP2;P2;SDS_P1;SDS_P2;PMS_P1;PMS_P2;Temp;Humidity;BMP_temperature;BMP_pressure;BME280_temperature;BME280_humidity;BME280_pressure;Samples;Min_cycle;Max_cycle;Signal;HPM_P1;HPM_P2
2024/02/05 00:00:15;;;;;;;5.40;2.38;;;7.30;99.90;;;;;;5077999;28;20020;-63
2024/02/05 00:02:41;;;;;;;2.42;2.10;;;7.30;99.90;;;;;;5075057;28;20059;-62
2024/02/05 00:05:10;;;;;;;3.00;2.50;;;7.30;99.90;;;;;;5078518;28;20022;-62
2024/02/05 00:07:36;;;;;;;2.47;2.08;;;7.30;99.90;;;;;;5078178;28;20035;-62
2024/02/05 00:10:05;;;;;;;2.35;1.95;;;7.30;99.90;;;;;;5077965;28;20436;-62
2024/02/05 00:12:31;;;;;;;3.00;1.92;;;7.30;99.90;;;;;;5078388;28;20515;-62
2024/02/05 00:14:57;;;;;;;3.25;2.38;;;7.30;99.90;;;;;;5079843;28;20028;-62
2024/02/05 00:17:22;;;;;;;2.22;1.90;;;7.30;99.90;;;;;;5077860;28;20028;-62
2024/02/05 00:19:48;;;;;;;2.80;2.08;;;7.40;99.90;;;;;;5078166;28;20251;-63
2024/02/05 00:22:13;;;;;;;2.53;2.10;;;7.40;99.90;;;;;;5078184;28;20244;-62
2024/02/05 00:24:39;;;;;;;2.53;1.95;;;7.40;99.90;;;;;;5078055;28;20036;-62
2024/02/05 00:27:04;;;;;;;3.00;2.45;;;7.40;99.90;;;;;;5078179;28;20024;-63
2024/02/05 00:29:30;;;;;;;3.35;2.10;;;7.40;99.90;;;;;;5079767;28;20451;-63
2024/02/05 00:31:55;;;;;;;2.85;2.25;;;7.40;99.90;;;;;;5076479;28;20519;-63
2024/02/05 00:34:21;;;;;;;2.67;2.35;;;7.40;99.90;;;;;;5078055;28;20028;-63
2024/02/05 00:36:46;;;;;;;2.10;1.90;;;7.40;99.90;;;;;;5077805;28;20032;-63
2024/02/05 00:39:12;;;;;;;3.10;2.17;;;7.40;99.90;;;;;;5077563;28;20032;-63
2024/02/05 00:41:37;;;;;;;3.35;2.00;;;7.40;99.90;;;;;;5079496;28;20042;-63
2024/02/05 00:44:03;;;;;;;3.22;2.00;;;7.50;99.90;;;;;;5077701;28;20121;-63
2024/02/05 00:46:29;;;;;;;2.80;2.20;;;7.50;99.90;;;;;;5077874;28;20461;-63
2024/02/05 00:48:55;;;;;;;3.60;2.70;;;7.50;99.90;;;;;;5077668;28;20081;-63
2024/02/05 00:51:21;;;;;;;3.80;2.83;;;7.50;99.90;;;;;;5077733;28;20461;-63
2024/02/05 00:53:47;;;;;;;3.10;2.75;;;7.60;99.90;;;;;;5077450;28;20107;-62
2024/02/05 00:56:13;;;;;;;4.40;2.40;;;7.60;99.90;;;;;;5079370;28;20048;-63
2024/02/05 00:58:39;;;;;;;3.13;2.35;;;7.60;99.90;;;;;;5077531;28;20070;-63
2024/02/05 01:01:05;;;;;;;2.47;2.28;;;7.70;99.90;;;;;;5076986;28;20093;-62
2024/02/05 01:03:31;;;;;;;2.58;2.00;;;7.60;99.90;;;;;;5074842;28;20024;-62
2024/02/05 01:05:57;;;;;;;2.28;2.00;;;7.70;99.90;;;;;;5077471;28;20669;-63
2024/02/05 01:08:22;;;;;;;2.40;2.20;;;7.70;99.90;;;;;;5077433;28;20043;-62
2024/02/05 01:10:48;;;;;;;2.45;2.20;;;7.80;99.90;;;;;;5081833;28;20032;-63
2024/02/05 01:13:14;;;;;;;2.95;2.08;;;7.80;99.90;;;;;;5082327;28;20086;-62
2024/02/05 01:15:40;;;;;;;3.03;1.80;;;7.90;99.90;;;;;;5081446;28;20028;-64
2024/02/05 01:18:06;;;;;;;2.20;1.85;;;8.00;99.90;;;;;;5077302;28;20396;-56
2024/02/05 01:20:32;;;;;;;1.92;1.50;;;8.00;99.90;;;;;;5081296;28;20040;-53
2024/02/05 01:22:57;;;;;;;1.85;1.70;;;8.10;99.90;;;;;;5081081;28;20095;-54
2024/02/05 01:25:23;;;;;;;1.52;1.30;;;8.20;99.90;;;;;;5081290;28;20039;-57
2024/02/05 01:27:49;;;;;;;1.45;1.30;;;8.20;99.90;;;;;;5082947;28;20455;-57
2024/02/05 01:30:14;;;;;;;1.63;1.40;;;8.30;99.90;;;;;;5081121;28;20429;-56
2024/02/05 01:32:40;;;;;;;1.27;1.17;;;8.40;99.90;;;;;;5081152;28;20089;-57
2024/02/05 01:35:05;;;;;;;0.80;0.80;;;8.50;99.90;;;;;;5081104;28;20048;-56
2024/02/05 01:37:31;;;;;;;0.82;0.82;;;8.60;99.90;;;;;;5076836;28;20404;-56
2024/02/05 01:39:56;;;;;;;1.98;0.80;;;8.60;99.90;;;;;;5080976;28;20059;-56
2024/02/05 01:42:23;;;;;;;0.80;0.70;;;8.70;99.90;;;;;;5081161;28;20496;-57
2024/02/05 01:44:49;;;;;;;0.40;0.40;;;8.80;99.90;;;;;;5078759;28;20016;-55
2024/02/05 01:47:14;;;;;;;0.50;0.50;;;8.80;99.90;;;;;;5080716;28;20038;-56
2024/02/05 01:49:41;;;;;;;0.60;0.60;;;8.90;99.90;;;;;;5080672;28;20397;-56
2024/02/05 01:52:09;;;;;;;0.70;0.60;;;9.00;99.90;;;;;;5080863;28;20553;-57
2024/02/05 01:54:37;;;;;;;1.10;0.50;;;9.00;99.90;;;;;;5080780;28;20027;-57
2024/02/05 01:57:05;;;;;;;0.80;0.80;;;9.10;99.90;;;;;;5080416;28;20112;-56
2024/02/05 01:59:32;;;;;;;2.25;0.70;;;9.10;99.90;;;;;;5080560;28;20024;-56
2024/02/05 02:01:58;;;;;;;1.83;0.60;;;9.20;99.90;;;;;;5078676;28;20160;-56
2024/02/05 02:04:24;;;;;;;1.42;0.55;;;9.20;99.90;;;;;;5080698;28;20020;-55
2024/02/05 02:06:51;;;;;;;0.65;0.52;;;9.20;99.90;;;;;;5080413;28;20028;-56
2024/02/05 02:09:19;;;;;;;0.77;0.75;;;9.30;99.90;;;;;;5080447;28;20031;-56
2024/02/05 02:11:45;;;;;;;0.80;0.80;;;9.30;99.90;;;;;;5080250;28;20016;-55
2024/02/05 02:14:10;;;;;;;0.40;0.40;;;9.40;99.90;;;;;;5080186;28;20016;-56
2024/02/05 02:16:36;;;;;;;2.40;0.93;;;9.40;99.90;;;;;;5080428;28;20512;-54
2024/02/05 02:19:10;;;;;;;1.35;0.50;;;9.40;99.90;;;;;;5082194;28;20028;-57
2024/02/05 02:21:37;;;;;;;0.70;0.60;;;9.50;99.90;;;;;;5076122;28;20070;-56
2024/02/05 02:24:03;;;;;;;0.85;0.70;;;9.50;99.90;;;;;;5078481;28;20083;-56
2024/02/05 02:26:29;;;;;;;0.75;0.60;;;9.50;99.90;;;;;;5079221;28;20147;-56
2024/02/05 02:28:55;;;;;;;0.88;0.43;;;9.60;99.90;;;;;;5079975;28;20463;-56
2024/02/05 02:31:24;;;;;;;0.90;0.68;;;9.60;99.90;;;;;;5080115;28;20024;-56
2024/02/05 02:33:58;;;;;;;0.60;0.50;;;9.60;99.90;;;;;;5079834;28;20039;-56
2024/02/05 02:36:28;;;;;;;0.70;0.70;;;9.60;99.90;;;;;;5080044;28;20536;-56
2024/02/05 02:39:00;;;;;;;0.68;0.60;;;9.60;99.90;;;;;;5080132;28;20304;-56
2024/02/05 02:41:29;;;;;;;0.52;0.50;;;9.60;99.90;;;;;;5079456;28;20036;-56
2024/02/05 02:43:59;;;;;;;0.52;0.52;;;9.70;99.90;;;;;;5080163;28;20020;-56
2024/02/05 02:46:28;;;;;;;0.65;0.60;;;9.60;99.90;;;;;;5079670;28;20047;-55
2024/02/05 02:48:54;;;;;;;0.45;0.40;;;9.70;99.90;;;;;;5079689;28;20040;-56
2024/02/05 02:51:19;;;;;;;0.68;0.68;;;9.60;99.90;;;;;;5075649;28;20032;-56
2024/02/05 02:53:45;;;;;;;1.15;0.70;;;9.70;99.90;;;;;;5079534;28;20031;-56
2024/02/05 02:56:10;;;;;;;0.77;0.60;;;9.70;99.90;;;;;;5081474;28;20016;-53
2024/02/05 02:58:36;;;;;;;0.65;0.65;;;9.70;99.90;;;;;;5079471;28;20020;-57
2024/02/05 03:01:02;;;;;;;0.45;0.40;;;9.80;99.90;;;;;;5078987;28;20099;-56
2024/02/05 03:03:27;;;;;;;0.77;0.50;;;9.80;99.90;;;;;;5072491;28;20031;-56
2024/02/05 03:05:53;;;;;;;0.73;0.52;;;9.80;99.90;;;;;;5079117;28;20073;-51
2024/02/05 03:08:18;;;;;;;0.50;0.50;;;9.80;99.90;;;;;;5074953;28;20515;-53
2024/02/05 03:10:44;;;;;;;0.63;0.50;;;9.80;99.90;;;;;;5079373;28;20031;-56
2024/02/05 03:13:10;;;;;;;1.42;0.50;;;9.80;99.90;;;;;;5080996;28;20660;-56
2024/02/05 03:15:36;;;;;;;2.17;0.50;;;9.70;99.90;;;;;;5079497;28;20027;-57
2024/02/05 03:18:02;;;;;;;0.40;0.40;;;9.70;99.90;;;;;;5078815;28;20431;-57
2024/02/05 03:20:41;;;;;;;0.70;0.30;;;9.80;99.90;;;;;;5079194;28;20020;-56
2024/02/05 03:23:08;;;;;;;0.70;0.60;;;9.70;99.90;;;;;;5079014;28;20058;-56
2024/02/05 03:25:34;;;;;;;0.50;0.50;;;9.80;99.90;;;;;;5074650;28;20047;-56
2024/02/05 03:28:00;;;;;;;0.40;0.40;;;9.80;99.90;;;;;;5078876;28;20089;-52
2024/02/05 03:30:30;;;;;;;0.60;0.40;;;9.80;99.90;;;;;;5078430;28;20040;-56
2024/02/05 03:32:57;;;;;;;0.40;0.40;;;9.80;99.90;;;;;;5078899;28;20043;-57
2024/02/05 03:35:23;;;;;;;0.50;0.40;;;9.80;99.90;;;;;;5078999;28;20024;-56
2024/02/05 03:37:49;;;;;;;0.52;0.52;;;9.80;99.90;;;;;;5078770;28;20036;-57
2024/02/05 03:40:15;;;;;;;0.35;0.35;;;9.80;99.90;;;;;;5078665;28;20107;-54
2024/02/05 03:42:41;;;;;;;1.60;0.30;;;9.80;99.90;;;;;;5080477;28;20102;-54
2024/02/05 03:45:07;;;;;;;2.50;0.38;;;9.80;99.90;;;;;;5078686;28;20012;-56
2024/02/05 03:47:33;;;;;;;0.20;0.20;;;9.80;99.90;;;;;;5078829;28;20028;-57
2024/02/05 03:49:58;;;;;;;1.15;0.52;;;9.80;99.90;;;;;;5078544;28;20392;-56
2024/02/05 03:52:24;;;;;;;1.02;0.30;;;9.80;99.90;;;;;;5074326;28;20366;-57
2024/02/05 03:54:50;;;;;;;0.30;0.25;;;9.80;99.90;;;;;;5078434;28;20031;-56
2024/02/05 03:57:15;;;;;;;1.45;0.20;;;9.80;99.90;;;;;;5080224;28;20028;-57
2024/02/05 03:59:41;;;;;;;0.20;0.20;;;9.80;99.90;;;;;;5078459;28;20028;-57
2024/02/05 04:02:06;;;;;;;0.30;0.30;;;9.80;99.90;;;;;;5071293;28;20057;-56
2024/02/05 04:04:32;;;;;;;0.55;0.20;;;9.80;99.90;;;;;;5077936;28;20046;-56
2024/02/05 04:06:58;;;;;;;1.55;0.45;;;9.90;99.90;;;;;;5078025;28;20319;-55
2024/02/05 04:09:23;;;;;;;0.50;0.40;;;9.90;99.90;;;;;;5078142;28;20696;-56
2024/02/05 04:11:49;;;;;;;0.65;0.50;;;9.90;99.90;;;;;;5074037;28;20031;-56
2024/02/05 04:14:15;;;;;;;0.30;0.30;;;9.90;99.90;;;;;;5075679;28;20031;-56
2024/02/05 04:16:40;;;;;;;0.50;0.30;;;9.80;99.90;;;;;;5078038;28;20024;-57
2024/02/05 04:19:06;;;;;;;0.52;0.35;;;9.90;99.90;;;;;;5078037;28;20020;-57
2024/02/05 04:21:32;;;;;;;0.20;0.17;;;9.90;99.90;;;;;;5077760;28;20079;-56
2024/02/05 04:23:57;;;;;;;0.40;0.40;;;9.90;99.90;;;;;;5077878;28;20061;-57
2024/02/05 04:26:22;;;;;;;0.43;0.40;;;9.80;99.90;;;;;;5079990;28;20042;-56
2024/02/05 04:28:48;;;;;;;0.93;0.50;;;9.90;99.90;;;;;;5077436;28;20370;-53
2024/02/05 04:31:17;;;;;;;0.35;0.35;;;9.90;99.90;;;;;;5077774;28;20067;-55
2024/02/05 04:33:43;;;;;;;0.40;0.22;;;9.90;99.90;;;;;;5077777;28;20032;-56
2024/02/05 04:36:11;;;;;;;0.47;0.25;;;9.90;99.90;;;;;;5077955;28;20028;-56
2024/02/05 04:38:36;;;;;;;1.30;0.40;;;9.90;99.90;;;;;;5077865;28;20485;-57
2024/02/05 04:41:02;;;;;;;0.30;0.30;;;9.80;99.90;;;;;;5077691;28;20028;-56
2024/02/05 04:43:27;;;;;;;4.30;0.30;;;9.80;99.90;;;;;;5077756;28;20143;-56
2024/02/05 04:45:53;;;;;;;0.50;0.50;;;9.90;99.90;;;;;;5078965;28;20024;-55
2024/02/05 04:48:20;;;;;;;2.80;0.40;;;9.80;99.90;;;;;;5075510;28;20013;-57
2024/02/05 04:50:46;;;;;;;2.65;0.40;;;9.80;99.90;;;;;;5077485;28;20719;-57
2024/02/05 04:53:12;;;;;;;1.25;0.13;;;9.80;99.90;;;;;;5073471;28;20509;-55
2024/02/05 04:55:41;;;;;;;0.45;0.30;;;9.80;99.90;;;;;;5077887;28;20028;-57
2024/02/05 04:58:08;;;;;;;2.20;0.30;;;9.80;99.90;;;;;;5077579;28;20020;-57
2024/02/05 05:00:34;;;;;;;0.50;0.28;;;9.80;99.90;;;;;;5077279;28;20436;-57
2024/02/05 05:02:59;;;;;;;1.33;0.30;;;9.80;99.90;;;;;;5070090;28;20058;-57
2024/02/05 05:05:25;;;;;;;0.98;0.38;;;9.80;99.90;;;;;;5079463;28;20190;-57
2024/02/05 05:07:50;;;;;;;0.65;0.25;;;9.80;99.90;;;;;;5077605;28;20030;-56
2024/02/05 05:10:16;;;;;;;0.40;0.32;;;9.70;99.90;;;;;;5077301;28;20050;-56
2024/02/05 05:12:41;;;;;;;0.20;0.20;;;9.70;99.90;;;;;;5077573;28;20289;-56
2024/02/05 05:15:07;;;;;;;0.50;0.30;;;9.70;99.90;;;;;;5077206;28;20121;-57
2024/02/05 05:17:33;;;;;;;0.57;0.38;;;9.80;99.90;;;;;;5079295;28;20035;-56
2024/02/05 05:19:58;;;;;;;0.20;0.20;;;9.70;99.90;;;;;;5077145;28;20486;-56
2024/02/05 05:22:24;;;;;;;0.30;0.30;;;9.70;99.90;;;;;;5077141;28;20040;-57
2024/02/05 05:24:49;;;;;;;1.45;0.30;;;9.80;99.90;;;;;;5077452;28;20039;-55
2024/02/05 05:27:15;;;;;;;3.92;0.60;;;9.80;99.90;;;;;;5077235;28;20493;-58
2024/02/05 05:29:40;;;;;;;1.00;0.80;;;9.80;99.90;;;;;;5077528;28;20182;-55
2024/02/05 05:32:06;;;;;;;1.85;0.30;;;9.80;99.90;;;;;;5078829;28;20499;-57
2024/02/05 05:34:32;;;;;;;1.50;0.20;;;9.80;99.90;;;;;;5077475;28;20120;-56
2024/02/05 05:36:58;;;;;;;1.77;0.30;;;9.80;99.90;;;;;;5077183;28;20024;-55
2024/02/05 05:39:23;;;;;;;2.13;0.32;;;9.80;99.90;;;;;;5077238;28;20028;-56
2024/02/05 05:41:49;;;;;;;0.20;0.20;;;9.80;99.90;;;;;;5076985;28;20115;-56
2024/02/05 05:44:14;;;;;;;4.22;0.47;;;9.80;99.90;;;;;;5077173;28;20028;-57
2024/02/05 05:46:39;;;;;;;0.57;0.47;;;9.80;99.90;;;;;;5078723;28;20050;-52
2024/02/05 05:49:05;;;;;;;2.88;0.63;;;9.80;99.90;;;;;;5076980;28;20028;-56
2024/02/05 05:51:30;;;;;;;0.82;0.50;;;9.80;99.90;;;;;;5077190;28;20036;-56
2024/02/05 05:53:56;;;;;;;0.68;0.32;;;9.80;99.90;;;;;;5076962;28;20036;-56
2024/02/05 05:56:22;;;;;;;1.23;0.43;;;9.70;99.90;;;;;;5075884;28;20028;-57
2024/02/05 05:58:52;;;;;;;0.93;0.50;;;9.70;99.90;;;;;;5079017;28;20024;-57
2024/02/05 06:01:18;;;;;;;1.48;0.30;;;9.70;99.90;;;;;;5076695;28;20040;-57
2024/02/05 06:03:44;;;;;;;2.95;0.50;;;9.60;99.90;;;;;;5082362;28;20108;-54
2024/02/05 06:06:10;;;;;;;4.03;0.60;;;9.70;99.90;;;;;;5080283;28;22278;-56
2024/02/05 06:08:36;;;;;;;4.35;1.00;;;9.70;99.90;;;;;;5080392;28;20070;-56
2024/02/05 06:11:02;;;;;;;3.05;0.60;;;9.70;99.90;;;;;;5080467;28;20475;-57
2024/02/05 06:13:27;;;;;;;2.97;0.60;;;9.70;99.90;;;;;;5080233;28;20020;-57
2024/02/05 06:15:53;;;;;;;2.63;0.75;;;9.70;99.90;;;;;;5080365;28;20023;-57
2024/02/05 06:18:18;;;;;;;3.58;0.65;;;9.70;99.90;;;;;;5080959;28;20019;-57
2024/02/05 06:20:44;;;;;;;2.25;0.73;;;9.70;99.90;;;;;;5077911;28;20454;-57
2024/02/05 06:23:09;;;;;;;3.22;0.73;;;9.70;99.90;;;;;;5080040;28;20036;-56
2024/02/05 06:25:35;;;;;;;3.85;1.08;;;9.70;99.90;;;;;;5080243;28;20024;-56
2024/02/05 06:28:00;;;;;;;1.38;0.80;;;9.70;99.90;;;;;;5078595;28;20047;-54
2024/02/05 06:30:27;;;;;;;1.92;0.75;;;9.70;99.90;;;;;;5079578;28;20043;-56
2024/02/05 06:32:53;;;;;;;3.97;0.70;;;9.70;99.90;;;;;;5081823;28;20272;-55
2024/02/05 06:35:18;;;;;;;2.67;0.90;;;9.70;99.90;;;;;;5079863;28;20074;-54
2024/02/05 06:37:44;;;;;;;1.92;0.80;;;9.70;99.90;;;;;;5079877;28;20036;-57
2024/02/05 06:40:09;;;;;;;2.10;0.60;;;9.70;99.90;;;;;;5079813;28;20081;-57
2024/02/05 06:42:35;;;;;;;1.92;0.80;;;9.70;99.90;;;;;;5079595;28;20527;-56
2024/02/05 06:45:01;;;;;;;3.08;0.80;;;9.70;99.90;;;;;;5080018;28;20024;-56
2024/02/05 06:47:27;;;;;;;0.55;0.50;;;9.70;99.90;;;;;;5081387;28;20043;-57
2024/02/05 06:49:52;;;;;;;2.25;0.95;;;9.70;99.90;;;;;;5079626;28;20020;-56
2024/02/05 06:52:19;;;;;;;0.50;0.43;;;9.70;99.90;;;;;;5079491;28;20446;-56
2024/02/05 06:54:45;;;;;;;1.42;0.77;;;9.70;99.90;;;;;;5079529;28;20501;-56
2024/02/05 06:57:10;;;;;;;0.95;0.40;;;9.60;99.90;;;;;;5079646;28;20039;-55
2024/02/05 06:59:36;;;;;;;1.15;0.60;;;9.70;99.90;;;;;;5079013;28;20024;-57
2024/02/05 07:02:01;;;;;;;1.77;0.50;;;9.60;99.90;;;;;;5073433;28;20047;-54
2024/02/05 07:04:27;;;;;;;2.72;0.50;;;9.60;99.90;;;;;;5074947;28;20024;-57
2024/02/05 07:06:52;;;;;;;1.10;0.57;;;9.60;99.90;;;;;;5078957;28;20056;-56
2024/02/05 07:09:18;;;;;;;1.85;0.50;;;9.60;99.90;;;;;;5078989;28;20453;-57
2024/02/05 07:11:43;;;;;;;3.75;0.80;;;9.60;99.90;;;;;;5078905;28;20112;-62
2024/02/05 07:14:09;;;;;;;1.15;0.50;;;9.60;99.90;;;;;;5074974;28;20016;-62
2024/02/05 07:16:34;;;;;;;4.32;0.70;;;9.60;99.90;;;;;;5079012;28;20020;-62
2024/02/05 07:19:00;;;;;;;0.73;0.50;;;9.60;99.90;;;;;;5080744;28;20038;-62
2024/02/05 07:21:25;;;;;;;2.90;0.40;;;9.60;99.90;;;;;;5074786;28;20443;-56
2024/02/05 07:23:51;;;;;;;3.08;0.60;;;9.60;99.90;;;;;;5078912;28;20028;-56
2024/02/05 07:26:16;;;;;;;0.88;0.52;;;9.60;99.90;;;;;;5078985;28;20031;-57
2024/02/05 07:28:44;;;;;;;1.52;0.60;;;9.70;99.90;;;;;;5078834;28;20070;-54
2024/02/05 07:31:10;;;;;;;0.90;0.50;;;9.70;99.90;;;;;;5078485;28;20126;-56
2024/02/05 07:33:35;;;;;;;1.65;0.80;;;9.70;99.90;;;;;;5078778;28;20111;-56
2024/02/05 07:36:01;;;;;;;0.63;0.63;;;9.80;99.90;;;;;;5080287;28;20034;-54
2024/02/05 07:38:26;;;;;;;0.45;0.45;;;9.80;99.90;;;;;;5078323;28;20012;-55
2024/02/05 07:40:52;;;;;;;1.88;0.65;;;9.80;99.90;;;;;;5074127;28;20661;-56
2024/02/05 07:43:17;;;;;;;0.65;0.60;;;9.90;99.90;;;;;;5078516;28;20027;-57
2024/02/05 07:45:43;;;;;;;0.75;0.43;;;9.90;99.90;;;;;;5078322;28;20024;-57
2024/02/05 07:48:09;;;;;;;0.65;0.43;;;9.90;99.90;;;;;;5080188;28;20067;-55
2024/02/05 07:50:35;;;;;;;2.50;0.55;;;9.90;99.90;;;;;;5080112;28;20116;-57
2024/02/05 07:53:01;;;;;;;0.80;0.50;;;10.00;99.90;;;;;;5078402;28;20099;-56
2024/02/05 07:55:27;;;;;;;0.80;0.60;;;10.00;99.90;;;;;;5078372;28;20017;-56
2024/02/05 07:57:52;;;;;;;1.27;0.60;;;10.00;99.90;;;;;;5077936;28;20489;-55
2024/02/05 08:00:18;;;;;;;0.43;0.40;;;10.00;99.90;;;;;;5074169;28;20111;-56
2024/02/05 08:02:43;;;;;;;0.82;0.63;;;10.00;99.90;;;;;;5076314;28;20042;-57
2024/02/05 08:05:09;;;;;;;0.88;0.60;;;10.00;99.90;;;;;;5075879;28;20421;-57
2024/02/05 08:07:35;;;;;;;2.35;0.43;;;10.00;99.90;;;;;;5078062;28;20020;-56
2024/02/05 08:10:01;;;;;;;2.67;0.50;;;10.00;99.90;;;;;;5078049;28;20024;-56
2024/02/05 08:12:26;;;;;;;0.80;0.60;;;10.00;99.90;;;;;;5077944;28;20062;-56
2024/02/05 08:14:52;;;;;;;3.17;0.60;;;10.00;99.90;;;;;;5077881;28;20048;-56
2024/02/05 08:17:17;;;;;;;1.20;0.60;;;10.10;99.90;;;;;;5079754;28;20031;-55
2024/02/05 08:19:43;;;;;;;1.30;0.73;;;10.10;99.90;;;;;;5076818;28;20397;-56
2024/02/05 08:22:09;;;;;;;1.25;0.68;;;10.10;99.90;;;;;;5077889;28;20059;-54
2024/02/05 08:24:34;;;;;;;1.00;0.82;;;10.10;99.90;;;;;;5077559;28;20024;-56
2024/02/05 08:27:00;;;;;;;1.45;0.55;;;10.10;99.90;;;;;;5077603;28;20658;-57
2024/02/05 08:29:26;;;;;;;2.45;0.70;;;10.10;99.90;;;;;;5077783;28;20040;-56
2024/02/05 08:31:52;;;;;;;1.05;0.70;;;10.10;99.90;;;;;;5079224;28;20420;-57
2024/02/05 08:34:17;;;;;;;0.75;0.70;;;10.10;99.90;;;;;;5077532;28;20020;-55
2024/02/05 08:36:43;;;;;;;1.63;0.90;;;10.10;99.90;;;;;;5077690;28;20024;-56
2024/02/05 08:39:10;;;;;;;2.75;1.00;;;10.10;99.90;;;;;;5077492;28;20032;-55
2024/02/05 08:41:36;;;;;;;1.67;1.10;;;10.10;99.90;;;;;;5077218;28;20047;-52
2024/02/05 08:44:02;;;;;;;0.90;0.75;;;10.10;99.90;;;;;;5077478;28;20047;-53
2024/02/05 08:46:27;;;;;;;0.90;0.80;;;10.10;99.90;;;;;;5077725;28;20031;-56
2024/02/05 08:48:53;;;;;;;1.80;1.10;;;10.10;99.90;;;;;;5079358;28;20043;-56
2024/02/05 08:51:18;;;;;;;1.45;1.35;;;10.10;99.90;;;;;;5074784;28;20493;-55
2024/02/05 08:53:46;;;;;;;3.55;1.50;;;10.00;99.90;;;;;;5077444;28;20103;-56
2024/02/05 08:56:12;;;;;;;2.45;1.20;;;10.00;99.90;;;;;;5077540;28;20018;-56
2024/02/05 08:58:38;;;;;;;3.33;1.40;;;10.00;99.90;;;;;;5077397;28;20025;-56
2024/02/05 09:01:04;;;;;;;2.22;1.42;;;10.00;99.90;;;;;;5077065;28;20402;-54
2024/02/05 09:03:29;;;;;;;5.80;1.50;;;10.00;99.90;;;;;;5070119;28;20073;-56
2024/02/05 09:05:55;;;;;;;5.57;2.13;;;10.00;99.90;;;;;;5079093;28;20735;-56
2024/02/05 09:08:20;;;;;;;5.25;1.92;;;10.00;99.90;;;;;;5077278;28;20067;-56
2024/02/05 09:10:46;;;;;;;3.67;1.83;;;10.10;99.90;;;;;;5077130;28;20040;-57
2024/02/05 09:13:12;;;;;;;4.25;1.67;;;10.10;99.90;;;;;;5076172;28;20479;-57
2024/02/05 09:15:39;;;;;;;3.53;1.65;;;10.10;99.90;;;;;;5077168;28;20042;-56
2024/02/05 09:18:05;;;;;;;7.40;1.98;;;10.10;99.90;;;;;;5077130;28;20024;-54
2024/02/05 09:20:31;;;;;;;3.97;1.80;;;10.10;99.90;;;;;;5079099;28;20500;-56
2024/02/05 09:22:56;;;;;;;3.70;1.65;;;10.10;99.90;;;;;;5076836;28;20047;-56
2024/02/05 09:25:22;;;;;;;3.08;1.50;;;10.10;99.90;;;;;;5077248;28;20359;-55
2024/02/05 09:27:48;;;;;;;5.38;1.80;;;10.10;99.90;;;;;;5076869;28;20545;-57
2024/02/05 09:30:13;;;;;;;4.25;2.25;;;10.10;99.90;;;;;;5077106;28;20548;-57
2024/02/05 09:32:39;;;;;;;6.65;2.25;;;10.10;99.90;;;;;;5082872;28;20032;-54
2024/02/05 09:35:05;;;;;;;9.52;2.17;;;10.00;99.90;;;;;;5078941;28;20063;-56
2024/02/05 09:37:30;;;;;;;5.53;1.60;;;10.10;99.90;;;;;;5080797;28;20036;-56
2024/02/05 09:39:56;;;;;;;5.60;2.20;;;10.10;99.90;;;;;;5080744;28;20024;-56
2024/02/05 09:42:21;;;;;;;7.00;2.00;;;10.10;99.90;;;;;;5080910;28;20495;-57
2024/02/05 09:44:50;;;;;;;6.82;2.35;;;10.10;99.90;;;;;;5080697;28;20028;-56
2024/02/05 09:47:19;;;;;;;6.43;2.17;;;10.10;99.90;;;;;;5076420;28;20643;-56
2024/02/05 09:49:48;;;;;;;6.00;2.50;;;10.10;99.90;;;;;;5080874;28;20374;-55
2024/02/05 09:52:15;;;;;;;9.30;2.53;;;10.10;99.90;;;;;;5078906;28;20388;-56
2024/02/05 09:54:42;;;;;;;5.80;2.58;;;10.10;99.90;;;;;;5078151;28;20079;-56
2024/02/05 09:57:09;;;;;;;10.43;2.90;;;10.20;99.90;;;;;;5077326;28;20035;-56
2024/02/05 09:59:35;;;;;;;3.65;2.10;;;10.10;99.90;;;;;;5080334;28;20035;-55
2024/02/05 10:02:06;;;;;;;5.03;2.10;;;10.10;99.90;;;;;;5072044;28;20439;-57
2024/02/05 10:04:40;;;;;;;7.80;2.47;;;10.00;99.90;;;;;;5080185;28;20101;-54
2024/02/05 10:07:11;;;;;;;8.35;2.40;;;10.10;99.90;;;;;;5080157;28;20503;-57
2024/02/05 10:09:38;;;;;;;7.45;2.83;;;10.10;99.90;;;;;;5079255;28;20029;-53
2024/02/05 10:12:04;;;;;;;8.55;2.38;;;10.10;99.90;;;;;;5080285;28;20517;-56
2024/02/05 10:14:30;;;;;;;8.20;2.85;;;10.20;99.90;;;;;;5080367;28;20285;-56
2024/02/05 10:16:56;;;;;;;9.07;2.80;;;10.20;99.90;;;;;;5080230;28;20020;-57
2024/02/05 10:19:22;;;;;;;11.82;2.72;;;10.30;99.90;;;;;;5080070;28;20085;-56
2024/02/05 10:21:47;;;;;;;9.90;2.40;;;10.20;99.90;;;;;;5081842;28;20020;-57
2024/02/05 10:24:14;;;;;;;11.70;3.28;;;10.30;99.90;;;;;;5080086;28;20028;-56
2024/02/05 10:26:40;;;;;;;10.80;3.50;;;10.30;99.90;;;;;;5080026;28;20032;-56
2024/02/05 10:29:07;;;;;;;11.07;3.20;;;10.20;99.90;;;;;;5079590;28;20032;-54
2024/02/05 10:31:33;;;;;;;4.80;2.35;;;10.20;99.90;;;;;;5079938;28;20227;-54
2024/02/05 10:33:58;;;;;;;7.85;2.97;;;10.20;99.90;;;;;;5079813;28;20032;-56
2024/02/05 10:36:24;;;;;;;10.77;3.45;;;10.10;99.90;;;;;;5080181;28;20028;-54
2024/02/05 10:38:49;;;;;;;6.85;2.97;;;10.10;99.90;;;;;;5081307;28;20030;-54
2024/02/05 10:41:15;;;;;;;11.68;3.80;;;10.00;99.90;;;;;;5079489;28;20028;-57
2024/02/05 10:43:44;;;;;;;14.65;3.70;;;10.00;99.90;;;;;;5079004;28;20069;-57
2024/02/05 10:46:10;;;;;;;9.63;3.53;;;10.00;99.90;;;;;;5079555;28;20036;-56
2024/02/05 10:48:35;;;;;;;7.68;2.60;;;10.00;99.90;;;;;;5079498;28;20308;-55
2024/02/05 10:51:01;;;;;;;12.00;3.28;;;10.00;99.90;;;;;;5079770;28;20169;-56
2024/02/05 10:53:27;;;;;;;13.60;3.70;;;10.00;99.90;;;;;;5081260;28;20508;-55
2024/02/05 10:55:56;;;;;;;11.75;3.05;;;10.00;99.90;;;;;;5079522;28;20048;-56
2024/02/05 10:58:23;;;;;;;15.70;4.10;;;10.00;99.90;;;;;;5079529;28;20024;-55
2024/02/05 11:00:50;;;;;;;9.82;3.28;;;10.00;99.90;;;;;;5079148;28;20028;-49
2024/02/05 11:03:21;;;;;;;12.07;3.53;;;10.00;99.90;;;;;;5075897;28;20086;-51
2024/02/05 11:05:53;;;;;;;8.88;3.45;;;10.00;99.90;;;;;;5079162;28;20510;-51
2024/02/05 11:08:32;;;;;;;14.32;3.13;;;10.10;99.90;;;;;;5078888;28;20044;-48
2024/02/05 11:11:01;;;;;;;7.68;2.72;;;10.00;99.90;;;;;;5079299;28;20020;-62
2024/02/05 11:13:53;;;;;;;11.50;2.78;;;10.00;99.90;;;;;;5079185;28;20024;-63
2024/02/05 11:16:20;;;;;;;11.63;3.10;;;10.10;99.90;;;;;;5072927;28;20503;-62
2024/02/05 11:18:50;;;;;;;9.95;3.10;;;10.10;99.90;;;;;;5079136;28;20408;-62
2024/02/05 11:21:20;;;;;;;13.13;2.78;;;10.10;99.90;;;;;;5078809;28;20035;-62
2024/02/05 11:23:47;;;;;;;13.98;3.53;;;10.10;99.90;;;;;;5078681;28;20066;-62
2024/02/05 11:26:13;;;;;;;11.20;2.55;;;10.20;99.90;;;;;;5079223;28;20055;-62
2024/02/05 11:28:39;;;;;;;12.70;2.97;;;10.10;99.90;;;;;;5080625;28;20024;-62
2024/02/05 11:31:07;;;;;;;10.15;3.88;;;10.00;99.90;;;;;;5080461;28;20051;-62
2024/02/05 11:33:37;;;;;;;7.28;3.03;;;10.00;99.90;;;;;;5078707;28;20123;-62
2024/02/05 11:36:07;;;;;;;11.77;3.08;;;10.00;99.90;;;;;;5078765;28;20198;-62
2024/02/05 11:38:33;;;;;;;12.90;3.33;;;9.90;99.90;;;;;;5078207;28;20039;-62
2024/02/05 11:41:01;;;;;;;7.20;2.92;;;9.90;99.90;;;;;;5078422;28;20500;-62
2024/02/05 11:43:26;;;;;;;14.20;3.00;;;9.90;99.90;;;;;;5078329;28;20071;-62
2024/02/05 11:45:52;;;;;;;14.25;3.40;;;9.90;99.90;;;;;;5078692;28;20020;-62
2024/02/05 11:48:19;;;;;;;12.55;3.60;;;9.90;99.90;;;;;;5078256;28;20027;-62
2024/02/05 11:50:49;;;;;;;8.80;3.85;;;9.90;99.90;;;;;;5078500;28;20073;-61
2024/02/05 11:53:15;;;;;;;9.70;3.42;;;9.90;99.90;;;;;;5078454;28;20032;-62
2024/02/05 11:55:44;;;;;;;12.45;4.13;;;9.90;99.90;;;;;;5079981;28;20074;-62
2024/02/05 11:58:11;;;;;;;7.53;3.10;;;9.90;99.90;;;;;;5078148;28;20075;-62
2024/02/05 12:00:37;;;;;;;11.23;3.30;;;9.90;99.90;;;;;;5078484;28;20467;-62
2024/02/05 12:03:05;;;;;;;9.02;3.38;;;9.90;99.90;;;;;;5072074;28;20032;-62
2024/02/05 12:05:30;;;;;;;12.02;3.45;;;9.90;99.90;;;;;;5078230;28;20024;-63
2024/02/05 12:07:56;;;;;;;15.40;3.17;;;9.90;99.90;;;;;;5078141;28;20543;-62
2024/02/05 12:10:23;;;;;;;13.90;3.35;;;10.00;99.90;;;;;;5077959;28;20447;-62
2024/02/05 12:12:48;;;;;;;13.93;3.65;;;10.10;99.90;;;;;;5079511;28;20507;-62
2024/02/05 12:15:27;;;;;;;15.10;3.85;;;10.10;99.90;;;;;;5078099;28;20598;-62
2024/02/05 12:18:03;;;;;;;12.40;3.53;;;10.00;99.90;;;;;;5074196;28;20249;-62
2024/02/05 12:20:29;;;;;;;;;;;10.00;99.90;;;;;;5075503;28;20059;-61
2024/02/05 12:22:55;;;;;;;9.48;3.72;;;10.00;99.90;;;;;;5077725;28;19912;-61
2024/02/05 12:25:21;;;;;;;14.23;3.90;;;10.00;99.90;;;;;;5079569;28;20376;-62
2024/02/05 12:27:47;;;;;;;10.23;3.50;;;10.00;99.90;;;;;;5077922;28;20020;-61
2024/02/05 12:30:13;;;;;;;11.55;4.20;;;9.90;99.90;;;;;;5077421;28;20077;-62
2024/02/05 12:32:42;;;;;;;12.45;3.92;;;9.90;99.90;;;;;;5077896;28;20044;-62
2024/02/05 12:35:11;;;;;;;10.60;3.35;;;9.90;99.90;;;;;;5077812;28;20047;-61
2024/02/05 12:37:38;;;;;;;7.50;3.72;;;9.90;99.90;;;;;;5073417;28;20028;-61
2024/02/05 12:40:05;;;;;;;15.93;4.70;;;9.90;99.90;;;;;;5077502;28;20028;-62
2024/02/05 12:42:31;;;;;;;15.88;4.55;;;9.80;99.90;;;;;;5077751;28;20044;-61
2024/02/05 12:44:57;;;;;;;15.40;4.25;;;9.80;99.90;;;;;;5079404;28;20535;-62
2024/02/05 12:47:23;;;;;;;12.75;4.85;;;9.80;99.90;;;;;;5077612;28;20035;-62